createdAt,value
2022-12-09T00:01:06.122Z,11.88
2022-12-09T00:03:34.568Z,11.85
2022-12-09T00:06:08.529Z,15.43
2022-12-09T00:08:36.822Z,17.60
2022-12-09T00:11:05.077Z,20.65
2022-12-09T00:13:32.709Z,13.43
2022-12-09T00:16:00.348Z,16.65
2022-12-09T00:18:28.122Z,13.25
2022-12-09T00:20:55.644Z,11.57
2022-12-09T00:23:24.734Z,10.63
2022-12-09T00:25:52.476Z,10.05
2022-12-09T00:28:20.364Z,10.30
2022-12-09T00:30:48.004Z,11.98
2022-12-09T00:33:15.993Z,11.75
2022-12-09T00:35:43.650Z,12.18
2022-12-09T00:38:11.186Z,11.55
2022-12-09T00:40:40.057Z,12.50
2022-12-09T00:43:07.773Z,11.25
2022-12-09T00:45:35.360Z,12.63
2022-12-09T00:48:03.064Z,12.70
2022-12-09T00:50:30.605Z,11.20
2022-12-09T00:52:58.252Z,10.52
2022-12-09T00:55:26.053Z,11.13
2022-12-09T00:57:55.060Z,13.73
2022-12-09T01:00:22.627Z,11.25
2022-12-09T01:02:50.354Z,11.98
2022-12-09T01:05:18.574Z,12.25
2022-12-09T01:07:46.281Z,10.82
2022-12-09T01:10:14.048Z,11.32
2022-12-09T01:12:41.590Z,13.73
2022-12-09T01:15:11.707Z,11.35
2022-12-09T01:17:40.148Z,10.82
2022-12-09T01:20:10.316Z,12.15
2022-12-09T01:22:38.579Z,10.85
2022-12-09T01:25:07.150Z,10.48
2022-12-09T01:27:34.760Z,13.48
2022-12-09T01:30:02.374Z,13.85
2022-12-09T01:32:31.380Z,16.85
2022-12-09T01:34:58.927Z,13.02
2022-12-09T01:37:26.676Z,12.88
2022-12-09T01:39:54.370Z,12.52
2022-12-09T01:42:25.762Z,10.40
2022-12-09T01:45:44.937Z,11.20
2022-12-09T01:48:16.607Z,12.57
2022-12-09T01:50:50.232Z,12.45
2022-12-09T01:53:19.604Z,13.23
2022-12-09T01:55:47.565Z,13.35
2022-12-09T01:58:16.108Z,12.63
2022-12-09T02:00:45.188Z,13.55
2022-12-09T02:03:14.485Z,12.07
2022-12-09T02:05:42.853Z,13.45
2022-12-09T02:08:13.309Z,12.10
2022-12-09T02:10:46.964Z,12.77
2022-12-09T02:13:25.201Z,12.43
2022-12-09T02:15:55.922Z,13.80
2022-12-09T02:18:28.807Z,14.82
2022-12-09T02:23:35.188Z,15.95
2022-12-09T02:26:14.480Z,16.23
2022-12-09T02:29:01.944Z,16.95
2022-12-09T02:31:45.404Z,14.05
2022-12-09T02:34:18.187Z,15.93
2022-12-09T02:36:57.885Z,12.82
2022-12-09T02:39:32.653Z,14.07
2022-12-09T02:42:04.492Z,12.77
2022-12-09T02:44:33.118Z,13.33
2022-12-09T02:47:01.714Z,12.50
2022-12-09T02:49:33.205Z,13.85
2022-12-09T02:52:02.365Z,17.58
2022-12-09T02:54:33.395Z,11.68
2022-12-09T02:57:06.380Z,17.17
2022-12-09T02:59:34.220Z,12.93
2022-12-09T03:02:13.093Z,16.70
2022-12-09T03:04:45.877Z,11.93
2022-12-09T03:07:26.855Z,14.60
2022-12-09T03:10:03.041Z,9.50
2022-12-09T03:12:33.110Z,14.48
2022-12-09T03:15:03.939Z,12.75
2022-12-09T03:17:34.400Z,14.07
2022-12-09T03:20:08.536Z,16.02
2022-12-09T03:22:38.180Z,13.65
2022-12-09T03:25:10.326Z,13.95
2022-12-09T03:27:41.794Z,13.63
2022-12-09T03:30:12.173Z,15.40
2022-12-09T03:32:42.130Z,13.05
2022-12-09T03:35:15.617Z,11.77
2022-12-09T03:37:45.850Z,12.15
2022-12-09T03:40:17.585Z,13.15
2022-12-09T03:42:50.505Z,11.10
2022-12-09T03:45:20.832Z,11.48
2022-12-09T03:47:48.495Z,12.10
2022-12-09T03:50:18.154Z,12.45
2022-12-09T03:52:50.097Z,14.50
2022-12-09T03:55:24.435Z,12.43
2022-12-09T03:57:55.916Z,12.93
2022-12-09T04:00:23.966Z,12.90
2022-12-09T04:02:51.822Z,17.20
2022-12-09T04:05:20.957Z,12.20
2022-12-09T04:07:48.699Z,11.98
2022-12-09T04:10:16.282Z,17.45
2022-12-09T04:12:43.967Z,14.50
2022-12-09T04:15:11.760Z,13.30
2022-12-09T04:17:39.417Z,12.88
2022-12-09T04:20:09.261Z,14.57
2022-12-09T04:22:38.456Z,13.70
2022-12-09T04:25:07.619Z,14.52
2022-12-09T04:27:35.224Z,13.18
2022-12-09T04:30:02.791Z,12.93
2022-12-09T04:32:31.312Z,13.98
2022-12-09T04:34:58.882Z,14.23
2022-12-09T04:37:26.736Z,15.02
2022-12-09T04:39:55.638Z,13.68
2022-12-09T04:42:23.194Z,13.15
2022-12-09T04:44:50.861Z,14.65
2022-12-09T04:47:18.872Z,13.00
2022-12-09T04:49:46.616Z,13.02
2022-12-09T04:52:14.260Z,11.80
2022-12-09T04:54:41.811Z,13.95
2022-12-09T04:57:12.354Z,13.77
2022-12-09T04:59:40.115Z,14.80
2022-12-09T05:02:07.903Z,13.85
2022-12-09T05:04:36.006Z,16.88
2022-12-09T05:07:03.978Z,16.15
2022-12-09T05:09:31.866Z,14.55
2022-12-09T05:11:59.422Z,15.20
2022-12-09T05:14:28.612Z,15.07
2022-12-09T05:16:56.464Z,15.75
2022-12-09T05:19:24.972Z,17.00
2022-12-09T05:21:52.981Z,15.30
2022-12-09T05:24:20.667Z,14.57
2022-12-09T05:26:48.503Z,16.25
2022-12-09T05:29:22.385Z,15.23
2022-12-09T05:31:52.527Z,16.50
2022-12-09T05:34:20.521Z,15.77
2022-12-09T05:36:48.641Z,17.23
2022-12-09T05:39:16.455Z,15.73
2022-12-09T05:41:44.553Z,16.42
2022-12-09T05:44:12.878Z,20.75
2022-12-09T05:46:40.548Z,13.25
2022-12-09T05:49:10.301Z,14.23
2022-12-09T05:51:38.458Z,19.20
2022-12-09T05:54:07.382Z,14.50
2022-12-09T05:56:35.452Z,14.57
2022-12-09T05:59:03.202Z,15.80
2022-12-09T06:01:31.304Z,14.48
2022-12-09T06:03:59.168Z,14.68
2022-12-09T06:06:30.213Z,14.35
2022-12-09T06:09:00.857Z,15.98
2022-12-09T06:11:30.207Z,15.95
2022-12-09T06:13:58.329Z,15.38
2022-12-09T06:16:26.724Z,16.52
2022-12-09T06:18:55.143Z,16.20
2022-12-09T06:21:23.637Z,16.42
2022-12-09T06:23:53.660Z,16.83
2022-12-09T06:26:23.998Z,15.80
2022-12-09T06:28:52.889Z,16.55
2022-12-09T06:31:21.300Z,16.92
2022-12-09T06:33:58.481Z,17.77
2022-12-09T06:36:28.060Z,18.55
2022-12-09T06:39:01.786Z,18.45
2022-12-09T06:41:33.940Z,18.08
2022-12-09T06:44:02.021Z,21.35
2022-12-09T06:46:29.833Z,20.27
2022-12-09T06:48:57.885Z,16.73
2022-12-09T06:51:26.106Z,19.25
2022-12-09T06:53:54.615Z,20.42
2022-12-09T06:56:24.722Z,18.60
2022-12-09T06:58:52.882Z,21.98
2022-12-09T07:01:23.099Z,20.20
2022-12-09T07:03:52.714Z,22.42
2022-12-09T07:06:27.070Z,18.67
2022-12-09T07:08:55.828Z,25.90
2022-12-09T07:11:25.174Z,22.67
2022-12-09T07:13:53.517Z,23.30
2022-12-09T07:16:21.931Z,22.95
2022-12-09T07:18:49.904Z,20.85
2022-12-09T07:21:20.904Z,18.70
2022-12-09T07:23:49.379Z,19.20
2022-12-09T07:26:18.383Z,19.80
2022-12-09T07:28:50.188Z,24.08
2022-12-09T07:31:20.230Z,19.15
2022-12-09T07:33:48.553Z,19.70
2022-12-09T07:36:21.028Z,18.88
2022-12-09T07:38:49.656Z,18.35
2022-12-09T07:41:19.313Z,15.07
2022-12-09T07:43:49.688Z,22.35
2022-12-09T07:46:19.431Z,19.35
2022-12-09T07:48:48.474Z,16.92
2022-12-09T07:51:17.223Z,23.05
2022-12-09T07:53:45.334Z,16.73
2022-12-09T07:56:15.671Z,18.73
2022-12-09T07:58:44.748Z,22.85
2022-12-09T08:01:16.703Z,22.73
2022-12-09T08:03:45.505Z,22.83
2022-12-09T08:06:15.128Z,19.35
2022-12-09T08:08:43.139Z,20.70
2022-12-09T08:11:12.957Z,24.33
2022-12-09T08:13:42.261Z,23.25
2022-12-09T08:16:14.218Z,21.65
2022-12-09T08:18:43.195Z,22.53
2022-12-09T08:21:13.395Z,24.00
2022-12-09T08:23:41.316Z,20.38
2022-12-09T08:26:10.585Z,21.77
2022-12-09T08:28:38.753Z,27.30
2022-12-09T08:31:10.709Z,35.40
2022-12-09T08:33:40.762Z,34.53
2022-12-09T08:36:13.051Z,36.88
2022-12-09T08:38:41.362Z,33.20
2022-12-09T08:41:10.644Z,26.75
2022-12-09T08:43:39.394Z,22.88
2022-12-09T08:46:07.135Z,25.92
2022-12-09T08:48:37.152Z,24.65
2022-12-09T08:51:07.368Z,23.60
2022-12-09T08:53:35.117Z,24.55
2022-12-09T08:56:10.304Z,24.17
2022-12-09T08:58:38.279Z,29.50
2022-12-09T09:01:06.718Z,27.33
2022-12-09T09:03:35.402Z,24.00
2022-12-09T09:06:09.672Z,27.20
2022-12-09T09:08:40.329Z,24.02
2022-12-09T09:11:12.275Z,27.45
2022-12-09T09:13:41.499Z,26.40
2022-12-09T09:16:11.395Z,23.58
2022-12-09T09:18:39.622Z,23.92
2022-12-09T09:21:09.081Z,24.33
2022-12-09T09:23:37.520Z,25.60
2022-12-09T09:26:10.285Z,33.80
2022-12-09T09:28:37.949Z,28.63
2022-12-09T09:31:07.902Z,30.58
2022-12-09T09:33:36.362Z,27.60
2022-12-09T09:36:10.153Z,26.10
2022-12-09T09:38:38.745Z,28.83
2022-12-09T09:41:21.691Z,26.20
2022-12-09T09:43:49.900Z,28.92
2022-12-09T09:46:30.183Z,28.35
2022-12-09T09:48:59.914Z,29.20
2022-12-09T09:51:28.613Z,28.85
2022-12-09T09:53:56.449Z,29.20
2022-12-09T09:56:35.535Z,28.27
2022-12-09T09:59:19.406Z,30.58
2022-12-09T10:01:54.495Z,25.27
2022-12-09T10:04:29.725Z,25.73
2022-12-09T10:07:08.755Z,26.58
2022-12-09T10:09:42.821Z,25.95
2022-12-09T10:12:21.314Z,37.40
2022-12-09T10:14:57.901Z,35.70
2022-12-09T10:17:29.634Z,35.67
2022-12-09T10:20:03.640Z,36.45
2022-12-09T10:22:38.472Z,34.25
2022-12-09T10:25:17.837Z,36.25
2022-12-09T10:27:53.298Z,28.15
2022-12-09T10:30:21.755Z,31.33
2022-12-09T10:32:50.395Z,32.33
2022-12-09T10:35:20.833Z,27.83
2022-12-09T10:37:49.876Z,30.52
2022-12-09T10:40:23.979Z,32.60
2022-12-09T10:43:15.462Z,41.35
2022-12-09T10:46:15.712Z,29.13
2022-12-09T10:48:34.618Z,28.58
2022-12-09T10:51:07.043Z,28.90
2022-12-09T10:53:36.134Z,28.00
2022-12-09T10:56:05.115Z,26.67
2022-12-09T10:58:34.093Z,30.58
2022-12-09T11:01:05.283Z,29.05
2022-12-09T11:03:36.278Z,31.63
2022-12-09T11:06:16.477Z,27.25
2022-12-09T11:08:52.477Z,33.97
2022-12-09T11:11:20.753Z,32.38
2022-12-09T11:13:49.999Z,35.83
2022-12-09T11:16:18.105Z,40.10
2022-12-09T11:18:48.147Z,35.50
2022-12-09T11:21:33.456Z,38.67
2022-12-09T11:24:03.412Z,40.47
2022-12-09T11:26:38.460Z,29.73
2022-12-09T11:29:15.694Z,30.27
2022-12-09T11:31:44.632Z,27.42
2022-12-09T11:34:19.821Z,28.65
2022-12-09T11:36:50.766Z,27.75
2022-12-09T11:39:26.235Z,30.85
2022-12-09T11:42:17.654Z,36.75
2022-12-09T11:44:56.477Z,39.60
2022-12-09T11:47:36.482Z,39.63
2022-12-09T11:50:18.824Z,36.08
2022-12-09T11:52:47.082Z,39.17
2022-12-09T11:55:20.369Z,37.42
2022-12-09T11:57:52.275Z,40.60
2022-12-09T12:00:25.627Z,36.30
2022-12-09T12:03:00.449Z,38.65
2022-12-09T12:05:33.988Z,39.90
2022-12-09T12:08:14.993Z,38.80
2022-12-09T12:10:45.732Z,40.95
2022-12-09T12:13:21.262Z,39.75
2022-12-09T12:15:57.133Z,35.15
2022-12-09T12:18:27.089Z,37.15
2022-12-09T12:21:19.579Z,43.47
2022-12-09T12:24:12.777Z,35.70
2022-12-09T12:29:28.951Z,31.98
2022-12-09T12:32:28.764Z,38.90
2022-12-09T12:35:13.455Z,37.38
2022-12-09T12:37:54.696Z,35.80
2022-12-09T12:40:33.304Z,39.05
2022-12-09T12:43:29.408Z,41.22
2022-12-09T12:46:18.980Z,35.50
2022-12-09T12:49:00.036Z,39.28
2022-12-09T12:51:37.528Z,36.53
2022-12-09T12:54:16.345Z,43.58
2022-12-09T12:56:52.363Z,42.63
2022-12-09T12:59:28.088Z,42.38
2022-12-09T13:02:01.289Z,41.95
2022-12-09T13:04:40.231Z,44.00
2022-12-09T13:07:13.062Z,41.33
2022-12-09T13:12:16.616Z,45.95
2022-12-09T13:14:53.428Z,43.35
2022-12-09T13:17:24.129Z,44.88
2022-12-09T13:19:55.529Z,40.13
2022-12-09T13:22:27.719Z,44.00
2022-12-09T13:25:02.561Z,43.28
2022-12-09T13:27:38.395Z,42.97
2022-12-09T13:30:12.175Z,45.20
2022-12-09T13:32:59.400Z,35.92
2022-12-09T13:35:36.544Z,41.70
2022-12-09T13:38:04.529Z,41.92
2022-12-09T13:40:36.604Z,42.45
2022-12-09T13:43:12.927Z,39.45
2022-12-09T13:45:50.120Z,40.80
2022-12-09T13:48:43.410Z,39.05
2022-12-09T13:53:46.369Z,39.03
2022-12-09T13:56:28.833Z,40.83
2022-12-09T13:59:17.732Z,36.22
2022-12-09T14:01:49.891Z,36.30
2022-12-09T14:04:22.181Z,35.55
2022-12-09T14:06:57.403Z,39.35
2022-12-09T14:09:36.659Z,35.97
2022-12-09T14:12:06.379Z,37.85
2022-12-09T14:14:58.739Z,36.22
2022-12-09T14:18:01.309Z,37.03
2022-12-09T14:20:37.846Z,38.37
2022-12-09T14:23:19.223Z,39.53
2022-12-09T14:26:05.819Z,34.28
2022-12-09T14:28:56.219Z,40.83
2022-12-09T14:31:57.842Z,35.83
2022-12-09T14:34:33.255Z,32.55
2022-12-09T14:37:21.408Z,39.33
2022-12-09T14:39:56.993Z,38.90
2022-12-09T14:42:34.272Z,37.15
2022-12-09T14:45:15.484Z,30.13
2022-12-09T14:47:46.355Z,36.92
2022-12-09T14:50:17.228Z,32.35
2022-12-09T14:52:53.876Z,30.48
2022-12-09T14:55:26.265Z,29.98
2022-12-09T14:57:55.672Z,30.10
2022-12-09T15:00:30.307Z,30.75
2022-12-09T15:03:30.624Z,30.50
2022-12-09T15:05:55.753Z,34.22
2022-12-09T15:08:34.376Z,30.98
2022-12-09T15:11:09.361Z,30.98
2022-12-09T15:13:37.710Z,30.23
2022-12-09T15:16:09.186Z,34.42
2022-12-09T15:18:39.811Z,32.65
2022-12-09T15:21:08.117Z,32.63
2022-12-09T15:23:38.913Z,26.67
2022-12-09T15:26:10.688Z,33.28
2022-12-09T15:28:38.616Z,31.15
2022-12-09T15:31:08.066Z,27.88
2022-12-09T15:33:41.525Z,27.08
2022-12-09T15:36:12.563Z,30.13
2022-12-09T15:38:45.943Z,31.50
2022-12-09T15:41:34.946Z,36.53
2022-12-09T15:44:07.459Z,32.38
2022-12-09T15:46:37.633Z,31.05
2022-12-09T15:49:08.382Z,32.15
2022-12-09T15:51:38.106Z,30.55
2022-12-09T15:54:12.035Z,29.02
2022-12-09T15:56:46.855Z,33.30
2022-12-09T15:59:20.352Z,31.92
2022-12-09T16:01:50.398Z,31.20
2022-12-09T16:04:20.898Z,29.27
2022-12-09T16:06:50.118Z,34.83
2022-12-09T16:09:20.896Z,29.50
2022-12-09T16:11:54.481Z,29.38
2022-12-09T16:14:24.439Z,35.50
2022-12-09T16:16:56.286Z,30.02
2022-12-09T16:19:33.602Z,28.90
2022-12-09T16:22:04.469Z,28.20
2022-12-09T16:25:05.660Z,29.17
2022-12-09T16:27:25.480Z,25.60
2022-12-09T16:29:55.207Z,29.85
2022-12-09T16:32:28.183Z,28.98
2022-12-09T16:34:57.947Z,27.88
2022-12-09T16:37:35.807Z,31.45
2022-12-09T16:40:35.193Z,26.30
2022-12-09T16:43:23.467Z,27.50
2022-12-09T16:45:52.457Z,26.33
2022-12-09T16:48:21.837Z,25.58
2022-12-09T16:50:51.641Z,25.58
2022-12-09T16:53:21.409Z,24.95
2022-12-09T16:55:53.245Z,26.33
2022-12-09T16:58:22.863Z,29.00
2022-12-09T17:00:51.043Z,30.88
2022-12-09T17:03:32.651Z,24.25
2022-12-09T17:06:00.373Z,28.80
2022-12-09T17:08:27.963Z,29.38
2022-12-09T17:10:55.550Z,26.33
2022-12-09T17:13:24.446Z,28.63
2022-12-09T17:15:52.935Z,21.60
2022-12-09T17:18:20.530Z,24.63
2022-12-09T17:20:48.052Z,27.52
2022-12-09T17:23:15.555Z,27.40
2022-12-09T17:25:43.069Z,30.83
2022-12-09T17:28:11.628Z,29.50
2022-12-09T17:30:40.464Z,26.48
2022-12-09T17:33:07.970Z,21.38
2022-12-09T17:35:38.774Z,23.25
2022-12-09T17:38:06.312Z,20.50
2022-12-09T17:40:35.521Z,19.50
2022-12-09T17:43:03.409Z,21.48
2022-12-09T17:45:30.928Z,19.65
2022-12-09T17:48:00.106Z,19.27
2022-12-09T17:50:27.629Z,20.17
2022-12-09T17:52:55.155Z,20.73
2022-12-09T17:55:23.116Z,21.83
2022-12-09T17:57:54.124Z,22.30
2022-12-09T18:00:22.166Z,22.05
2022-12-09T18:02:49.730Z,20.65
2022-12-09T18:05:18.744Z,24.35
2022-12-09T18:07:46.351Z,26.52
2022-12-09T18:10:13.923Z,26.52
2022-12-09T18:12:41.507Z,24.13
2022-12-09T18:15:09.578Z,21.65
2022-12-09T18:17:37.061Z,21.85
2022-12-09T18:20:05.689Z,19.52
2022-12-09T18:22:34.841Z,21.83
2022-12-09T18:25:02.472Z,21.13
2022-12-09T18:27:30.785Z,19.65
2022-12-09T18:29:58.305Z,23.02
2022-12-09T18:32:25.900Z,20.80
2022-12-09T18:34:53.472Z,22.02
2022-12-09T18:37:21.304Z,22.05
2022-12-09T18:39:50.128Z,21.27
2022-12-09T18:42:17.616Z,24.10
2022-12-09T18:44:45.333Z,22.38
2022-12-09T18:47:12.855Z,20.73
2022-12-09T18:49:40.391Z,23.35
2022-12-09T18:52:07.951Z,27.92
2022-12-09T18:54:36.522Z,26.33
2022-12-09T18:57:05.545Z,21.55
2022-12-09T18:59:33.411Z,22.65
2022-12-09T19:02:00.950Z,20.38
2022-12-09T19:04:29.972Z,20.90
2022-12-09T19:06:59.911Z,18.60
2022-12-09T19:09:31.721Z,23.17
2022-12-09T19:12:11.308Z,18.63
2022-12-09T19:14:48.220Z,21.73
2022-12-09T19:17:15.763Z,20.33
2022-12-09T19:19:45.176Z,19.52
2022-12-09T19:22:12.719Z,18.67
2022-12-09T19:24:43.181Z,19.88
2022-12-09T19:27:11.252Z,18.75
2022-12-09T19:29:39.422Z,21.30
2022-12-09T19:32:29.397Z,19.45
2022-12-09T19:34:55.974Z,23.33
2022-12-09T19:37:23.579Z,22.13
2022-12-09T19:39:51.080Z,21.30
2022-12-09T19:42:19.187Z,20.55
2022-12-09T19:45:06.491Z,22.50
2022-12-09T19:47:36.865Z,23.02
2022-12-09T19:50:05.348Z,19.65
2022-12-09T19:52:33.101Z,22.40
2022-12-09T19:55:00.652Z,22.60
2022-12-09T19:57:28.137Z,22.45
2022-12-09T19:59:55.671Z,23.67
2022-12-09T20:02:23.408Z,23.85
2022-12-09T20:04:52.558Z,27.80
2022-12-09T20:07:20.536Z,23.08
2022-12-09T20:09:48.138Z,26.35
2022-12-09T20:12:15.759Z,25.85
2022-12-09T20:14:43.893Z,25.73
2022-12-09T20:17:11.618Z,24.15
2022-12-09T20:19:39.153Z,25.42
2022-12-09T20:22:08.001Z,24.92
2022-12-09T20:24:35.750Z,25.92
2022-12-09T20:27:03.291Z,25.83
2022-12-09T20:29:36.914Z,26.48
2022-12-09T20:32:05.370Z,29.65
2022-12-09T20:34:32.940Z,25.17
2022-12-09T20:37:00.741Z,25.33
2022-12-09T20:39:29.616Z,27.63
2022-12-09T20:41:57.170Z,30.23
2022-12-09T20:44:25.152Z,24.58
2022-12-09T20:46:54.129Z,26.55
2022-12-09T20:49:26.607Z,27.92
2022-12-09T20:51:55.408Z,29.13
2022-12-09T20:54:23.411Z,27.73
2022-12-09T20:56:52.988Z,28.40
2022-12-09T20:59:20.556Z,24.10
2022-12-09T21:01:48.090Z,25.02
2022-12-09T21:04:16.349Z,27.05
2022-12-09T21:06:43.931Z,30.80
2022-12-09T21:09:17.345Z,35.20
2022-12-09T21:11:45.550Z,34.10
2022-12-09T21:14:14.531Z,31.40
2022-12-09T21:16:43.798Z,27.75
2022-12-09T21:19:14.222Z,29.83
2022-12-09T21:21:43.348Z,34.08
2022-12-09T21:24:12.076Z,25.27
2022-12-09T21:26:40.018Z,26.20
2022-12-09T21:29:08.633Z,26.70
2022-12-09T21:31:40.799Z,33.17
2022-12-09T21:34:10.023Z,26.67
2022-12-09T21:36:41.132Z,25.48
2022-12-09T21:39:09.600Z,30.33
2022-12-09T21:41:37.825Z,26.83
2022-12-09T21:44:07.829Z,30.55
2022-12-09T21:46:37.967Z,26.67
2022-12-09T21:49:07.109Z,29.42
2022-12-09T21:51:35.456Z,29.98
2022-12-09T21:54:03.340Z,24.67
2022-12-09T21:56:32.728Z,29.20
2022-12-09T21:59:01.182Z,29.15
2022-12-09T22:01:30.953Z,26.42
2022-12-09T22:04:01.336Z,31.98
2022-12-09T22:06:29.361Z,32.22
2022-12-09T22:08:58.472Z,26.17
2022-12-09T22:11:28.081Z,25.08
2022-12-09T22:13:57.494Z,28.00
2022-12-09T22:16:26.962Z,29.85
2022-12-09T22:18:56.555Z,32.33
2022-12-09T22:21:29.291Z,27.65
2022-12-09T22:23:59.940Z,29.83
2022-12-09T22:26:27.936Z,26.50
2022-12-09T22:28:56.818Z,29.00
2022-12-09T22:31:27.116Z,27.40
2022-12-09T22:33:59.263Z,27.45
2022-12-09T22:36:28.809Z,27.48
2022-12-09T22:38:56.637Z,27.55
2022-12-09T22:41:27.097Z,28.85
2022-12-09T22:43:55.385Z,32.70
2022-12-09T22:46:24.699Z,33.20
2022-12-09T22:48:52.966Z,43.38
2022-12-09T22:51:22.709Z,35.10
2022-12-09T22:53:53.878Z,29.27
2022-12-09T22:56:22.044Z,29.42
2022-12-09T22:58:50.168Z,29.45
2022-12-09T23:01:19.842Z,31.77
2022-12-09T23:03:47.875Z,27.50
2022-12-09T23:06:15.965Z,28.45
2022-12-09T23:08:44.684Z,29.35
2022-12-09T23:11:15.875Z,27.90
2022-12-09T23:13:44.108Z,27.13
2022-12-09T23:16:14.706Z,27.98
2022-12-09T23:18:42.660Z,27.98
2022-12-09T23:21:11.942Z,25.42
2022-12-09T23:23:39.890Z,27.38
2022-12-09T23:26:11.631Z,29.20
2022-12-09T23:28:41.867Z,24.88
2022-12-09T23:31:11.528Z,25.48
2022-12-09T23:33:41.020Z,24.85
2022-12-09T23:36:11.344Z,24.02
2022-12-09T23:38:39.200Z,26.95
2022-12-09T23:41:07.240Z,26.60
2022-12-09T23:43:36.220Z,24.88
2022-12-09T23:46:14.447Z,26.45
2022-12-09T23:48:43.671Z,23.52
2022-12-09T23:51:12.466Z,27.70
2022-12-09T23:53:40.785Z,23.58
2022-12-09T23:56:11.106Z,22.58
2022-12-09T23:58:38.815Z,23.20
